Otagawa — JD3046 — position and weather

sailwx.info

Track history (hours):
 
Tides and Currents Weather Stations Pressure Air Temp Water Temp Dewpoint Dewpoint Depression Visibility Wind Speed Wind Dir Waves Ship Positions

Otagawa

Last reported at 2016-Jun-30 11:25 UTC. Time now 2016-Jun-30 15:58 UTC.
Position N 35°01' E 139°28'.

Length 70 m; draft 3.8 m.

Type: Ship. MMSI: 431001328.

Date/timePositionNaut miles runAvg speedWind from/ knotsBaromVisibWave heightAir tempDewpointWater temp
2016-Jun-30 11:25N 35°01' E 139°28'910.9
2016-Jun-30 10:32N 35°06' E 139°39'1010.3
2016-Jun-30 09:33N 35°14' E 139°46'1110.9
2016-Jun-30 08:33N 35°24' E 139°41'0 0.1
2016-Jun-30 07:33N 35°24' E 139°41'1 1.3
2016-Jun-30 06:33N 35°23' E 139°40'0 0.0
2016-Jun-30 05:33N 35°23' E 139°40'8 7.6
2016-Jun-30 04:33N 35°29' E 139°45'2 1.7
2016-Jun-30 03:33N 35°28' E 139°46'1110.8
2016-Jun-30 02:33N 35°17' E 139°46'1110.8
2016-Jun-30 01:33N 35°06' E 139°44'1511.7
2016-Jun-30 00:19N 34°57' E 139°30'  
2016-Jun-27 18:19N 35°01' E 139°28'811.0
2016-Jun-27 17:32N 35°05' E 139°37'10 9.7
2016-Jun-27 16:33N 35°12' E 139°45'10 9.9
2016-Jun-27 15:33N 35°21' E 139°42'5 5.0
2016-Jun-27 14:33N 35°26' E 139°41'1 1.1
2016-Jun-27 13:33N 35°27' E 139°42'0 0.0
2016-Jun-27 12:33N 35°27' E 139°42'0 0.0
2016-Jun-27 11:33N 35°27' E 139°42'0 0.0
2016-Jun-27 10:33N 35°27' E 139°42'0 0.0
2016-Jun-27 09:33N 35°27' E 139°42'0 0.0
2016-Jun-27 08:33N 35°27' E 139°42'1 1.2
2016-Jun-27 07:33N 35°26' E 139°41'0 0.0
2016-Jun-27 06:33N 35°26' E 139°41'0 0.0
2016-Jun-27 05:33N 35°26' E 139°41'0 0.0
2016-Jun-27 04:33N 35°26' E 139°41'0 0.1
2016-Jun-27 03:33N 35°26' E 139°41'7 6.8
2016-Jun-27 02:33N 35°20' E 139°43'10 9.6
2016-Jun-27 01:33N 35°11' E 139°47'1210.6
2016-Jun-27 00:26N 34°59' E 139°43'8 9.5
2016-Jun-26 23:33N 34°53' E 139°50'1010.3
2016-Jun-26 22:33N 34°56' E 140°02'3 2.9
2016-Jun-26 21:32N 34°57' E 140°05'1111.0
2016-Jun-26 20:33N 35°03' E 140°16'1010.1
2016-Jun-26 19:32N 35°09' E 140°26'1110.8
2016-Jun-26 18:32N 35°18' E 140°34'1111.4
2016-Jun-26 17:33N 35°27' E 140°42'1111.4
2016-Jun-26 16:33N 35°36' E 140°50'1110.4
2016-Jun-26 15:30N 35°47' E 140°55'1010.8
2016-Jun-26 14:33N 35°57' E 140°57'1111.3
2016-Jun-26 13:33N 36°08' E 140°58'57 1.4
2016-Jun-24 20:14N 35°15' E 140°32'2111.3
2016-Jun-24 18:20N 35°01' E 140°13'1211.2
2016-Jun-24 17:17N 34°55' E 140°01'11 9.9
2016-Jun-24 16:11N 34°52' E 139°47'8 9.9
2016-Jun-24 15:24N 34°59' E 139°43'910.3
2016-Jun-24 14:33N 35°08' E 139°45'1110.6
2016-Jun-24 13:33N 35°18' E 139°44'9 8.6
2016-Jun-24 12:33N 35°27' E 139°41'0 0.0
2016-Jun-24 11:33N 35°27' E 139°41'0 0.0
2016-Jun-24 10:33N 35°27' E 139°41'1 1.2
2016-Jun-24 09:33N 35°27' E 139°42'0 0.0
2016-Jun-24 08:33N 35°27' E 139°42'0 0.0
2016-Jun-24 07:33N 35°27' E 139°42'9 3.2
2016-Jun-24 04:33N 35°35' E 139°47'2 2.4
2016-Jun-24 03:33N 35°34' E 139°50'0 0.4
2016-Jun-24 02:19N 35°34' E 139°50'0 0.0
2016-Jun-24 01:31N 35°34' E 139°50'0 0.0
2016-Jun-24 00:31N 35°34' E 139°50'0 0.0
2016-Jun-23 23:31N 35°34' E 139°50'0 0.0
2016-Jun-23 22:31N 35°34' E 139°50'0 0.0
2016-Jun-23 21:31N 35°34' E 139°50'0 0.0
2016-Jun-23 20:28N 35°34' E 139°50'0 0.0
2016-Jun-23 19:31N 35°34' E 139°50'4 4.6
2016-Jun-23 18:33N 35°37' E 139°46'0 0.1
2016-Jun-23 17:33N 35°37' E 139°46'0 0.0
2016-Jun-23 16:33N 35°37' E 139°46'0 0.4
2016-Jun-23 15:33N 35°36' E 139°46'4 3.9
2016-Jun-23 14:29N 35°34' E 139°50'0 0.0
2016-Jun-23 13:32N 35°34' E 139°50'0 0.0
2016-Jun-23 12:32N 35°34' E 139°50'0 0.0
2016-Jun-23 11:32N 35°34' E 139°50'0 0.0
2016-Jun-23 10:32N 35°34' E 139°50'0 0.0
2016-Jun-23 09:32N 35°34' E 139°50'0 0.0
2016-Jun-23 08:32N 35°34' E 139°50'0 0.0
2016-Jun-23 07:32N 35°34' E 139°50'10 5.0
2016-Jun-23 05:33N 35°27' E 139°42'3 3.3
2016-Jun-23 04:33N 35°29' E 139°45'0 0.1
2016-Jun-23 03:33N 35°29' E 139°45'1110.7
2016-Jun-23 02:33N 35°18' E 139°45'1010.2
2016-Jun-23 01:33N 35°08' E 139°46'61 2.0
2016-Jun-21 19:09N 35°02' E 138°31'0 0.1
2016-Jun-21 18:33N 35°02' E 138°31'0 0.0
2016-Jun-21 17:32N 35°02' E 138°31'0 0.0
2016-Jun-21 15:29N 35°02' E 138°31'0 0.0
2016-Jun-21 14:32N 35°02' E 138°31'0 0.0
2016-Jun-21 13:33N 35°02' E 138°31'0 0.0
2016-Jun-21 12:31N 35°02' E 138°31'26 2.3
2016-Jun-21 01:04N 34°36' E 138°32'54 9.8
2016-Jun-20 19:33N 35°02' E 139°30'1211.6
2016-Jun-20 18:33N 35°08' E 139°42'10 9.8
2016-Jun-20 17:33N 35°17' E 139°44'9 9.2
2016-Jun-20 16:33N 35°26' E 139°41'0 0.1
2016-Jun-20 15:33N 35°26' E 139°41'0 0.0
2016-Jun-20 14:34N 35°26' E 139°41'0 0.0
2016-Jun-20 13:33N 35°26' E 139°41'0 0.1
2016-Jun-20 12:33N 35°26' E 139°41'1 1.1
2016-Jun-20 11:32N 35°27' E 139°42'  
Track history (hours):
 
Tides and Currents Weather Stations Pressure Air Temp Water Temp Dewpoint Dewpoint Depression Visibility Wind Speed Wind Dir Waves Ship Positions

Otagawa

Last reported at 2016-Jun-30 11:25 UTC. Time now 2016-Jun-30 15:58 UTC.
Position N 35°01' E 139°28'.

Length 70 m; draft 3.8 m.

Type: Ship. MMSI: 431001328.

Date/timePositionNaut miles runAvg speedWind from/ knotsBaromVisibWave heightAir tempDewpointWater temp
2016-Jun-30 11:25N 35°01' E 139°28'910.9
2016-Jun-30 10:32N 35°06' E 139°39'1010.3
2016-Jun-30 09:33N 35°14' E 139°46'1110.9
2016-Jun-30 08:33N 35°24' E 139°41'0 0.1
2016-Jun-30 07:33N 35°24' E 139°41'1 1.3
2016-Jun-30 06:33N 35°23' E 139°40'0 0.0
2016-Jun-30 05:33N 35°23' E 139°40'8 7.6
2016-Jun-30 04:33N 35°29' E 139°45'2 1.7
2016-Jun-30 03:33N 35°28' E 139°46'1110.8
2016-Jun-30 02:33N 35°17' E 139°46'1110.8
2016-Jun-30 01:33N 35°06' E 139°44'1511.7
2016-Jun-30 00:19N 34°57' E 139°30'  
2016-Jun-27 18:19N 35°01' E 139°28'811.0
2016-Jun-27 17:32N 35°05' E 139°37'10 9.7
2016-Jun-27 16:33N 35°12' E 139°45'10 9.9
2016-Jun-27 15:33N 35°21' E 139°42'5 5.0
2016-Jun-27 14:33N 35°26' E 139°41'1 1.1
2016-Jun-27 13:33N 35°27' E 139°42'0 0.0
2016-Jun-27 12:33N 35°27' E 139°42'0 0.0
2016-Jun-27 11:33N 35°27' E 139°42'0 0.0
2016-Jun-27 10:33N 35°27' E 139°42'0 0.0
2016-Jun-27 09:33N 35°27' E 139°42'0 0.0
2016-Jun-27 08:33N 35°27' E 139°42'1 1.2
2016-Jun-27 07:33N 35°26' E 139°41'0 0.0
2016-Jun-27 06:33N 35°26' E 139°41'0 0.0
2016-Jun-27 05:33N 35°26' E 139°41'0 0.0
2016-Jun-27 04:33N 35°26' E 139°41'0 0.1
2016-Jun-27 03:33N 35°26' E 139°41'7 6.8
2016-Jun-27 02:33N 35°20' E 139°43'10 9.6
2016-Jun-27 01:33N 35°11' E 139°47'1210.6
2016-Jun-27 00:26N 34°59' E 139°43'8 9.5
2016-Jun-26 23:33N 34°53' E 139°50'1010.3
2016-Jun-26 22:33N 34°56' E 140°02'3 2.9
2016-Jun-26 21:32N 34°57' E 140°05'1111.0
2016-Jun-26 20:33N 35°03' E 140°16'1010.1
2016-Jun-26 19:32N 35°09' E 140°26'1110.8
2016-Jun-26 18:32N 35°18' E 140°34'1111.4
2016-Jun-26 17:33N 35°27' E 140°42'1111.4
2016-Jun-26 16:33N 35°36' E 140°50'1110.4
2016-Jun-26 15:30N 35°47' E 140°55'1010.8
2016-Jun-26 14:33N 35°57' E 140°57'1111.3
2016-Jun-26 13:33N 36°08' E 140°58'57 1.4
2016-Jun-24 20:14N 35°15' E 140°32'2111.3
2016-Jun-24 18:20N 35°01' E 140°13'1211.2
2016-Jun-24 17:17N 34°55' E 140°01'11 9.9
2016-Jun-24 16:11N 34°52' E 139°47'8 9.9
2016-Jun-24 15:24N 34°59' E 139°43'910.3
2016-Jun-24 14:33N 35°08' E 139°45'1110.6
2016-Jun-24 13:33N 35°18' E 139°44'9 8.6
2016-Jun-24 12:33N 35°27' E 139°41'0 0.0
2016-Jun-24 11:33N 35°27' E 139°41'0 0.0
2016-Jun-24 10:33N 35°27' E 139°41'1 1.2
2016-Jun-24 09:33N 35°27' E 139°42'0 0.0
2016-Jun-24 08:33N 35°27' E 139°42'0 0.0
2016-Jun-24 07:33N 35°27' E 139°42'9 3.2
2016-Jun-24 04:33N 35°35' E 139°47'2 2.4
2016-Jun-24 03:33N 35°34' E 139°50'0 0.4
2016-Jun-24 02:19N 35°34' E 139°50'0 0.0
2016-Jun-24 01:31N 35°34' E 139°50'0 0.0
2016-Jun-24 00:31N 35°34' E 139°50'0 0.0
2016-Jun-23 23:31N 35°34' E 139°50'0 0.0
2016-Jun-23 22:31N 35°34' E 139°50'0 0.0
2016-Jun-23 21:31N 35°34' E 139°50'0 0.0
2016-Jun-23 20:28N 35°34' E 139°50'0 0.0
2016-Jun-23 19:31N 35°34' E 139°50'4 4.6
2016-Jun-23 18:33N 35°37' E 139°46'0 0.1
2016-Jun-23 17:33N 35°37' E 139°46'0 0.0
2016-Jun-23 16:33N 35°37' E 139°46'0 0.4
2016-Jun-23 15:33N 35°36' E 139°46'4 3.9
2016-Jun-23 14:29N 35°34' E 139°50'0 0.0
2016-Jun-23 13:32N 35°34' E 139°50'0 0.0
2016-Jun-23 12:32N 35°34' E 139°50'0 0.0
2016-Jun-23 11:32N 35°34' E 139°50'0 0.0
2016-Jun-23 10:32N 35°34' E 139°50'0 0.0
2016-Jun-23 09:32N 35°34' E 139°50'0 0.0
2016-Jun-23 08:32N 35°34' E 139°50'0 0.0
2016-Jun-23 07:32N 35°34' E 139°50'10 5.0
2016-Jun-23 05:33N 35°27' E 139°42'3 3.3
2016-Jun-23 04:33N 35°29' E 139°45'0 0.1
2016-Jun-23 03:33N 35°29' E 139°45'1110.7
2016-Jun-23 02:33N 35°18' E 139°45'1010.2
2016-Jun-23 01:33N 35°08' E 139°46'61 2.0
2016-Jun-21 19:09N 35°02' E 138°31'0 0.1
2016-Jun-21 18:33N 35°02' E 138°31'0 0.0
2016-Jun-21 17:32N 35°02' E 138°31'0 0.0
2016-Jun-21 15:29N 35°02' E 138°31'0 0.0
2016-Jun-21 14:32N 35°02' E 138°31'0 0.0
2016-Jun-21 13:33N 35°02' E 138°31'0 0.0
2016-Jun-21 12:31N 35°02' E 138°31'26 2.3
2016-Jun-21 01:04N 34°36' E 138°32'54 9.8
2016-Jun-20 19:33N 35°02' E 139°30'1211.6
2016-Jun-20 18:33N 35°08' E 139°42'10 9.8
2016-Jun-20 17:33N 35°17' E 139°44'9 9.2
2016-Jun-20 16:33N 35°26' E 139°41'0 0.1
2016-Jun-20 15:33N 35°26' E 139°41'0 0.0
2016-Jun-20 14:34N 35°26' E 139°41'0 0.0
2016-Jun-20 13:33N 35°26' E 139°41'0 0.1
2016-Jun-20 12:33N 35°26' E 139°41'1 1.1
2016-Jun-20 11:32N 35°27' E 139°42'  

Dump ship's entire track history